O69

Petaluma Municipal Airport

Petaluma, California, USA
METAR KO69 192135Z AUTO 16008KT 4SM HZ CLR 18/02 A3001 RMK A01
Observed Flight Rules
Nov-19 @ 21:35 UTC (30 minutes ago) Marginal Visual Flight Rules
Wind Visibility Clouds Conditions
160° at 8 knots 4 miles
  • Clear skies
  • Haze
Temperatures Readings
Current 18°C / 64°F
Dewpoint 2°C / 36°F
Humidity 34%
Altimeter 30.01" Hg
Pressure 1016 hPa
Elevation 28
METAR KO69 192135Z AUTO 16008KT 4SM HZ CLR 18/02 A3001 RMK A01
Observed Flight Rules
Nov-19 @ 21:35 UTC
(30 minutes ago)
MVFR
Wind Visibility
160° at 8 knots 4 miles
Clouds
  • Clear skies
Conditions
  • Haze
Temperature Dewpoint
18°C / 64°F 2°C / 36°F
Humidity Altimeter Pressure
34% 30.01" Hg 1016 hPa